createdAt,value
2018-10-11T00:02:50.118Z,14.30
2018-10-11T00:05:23.660Z,14.80
2018-10-11T00:07:52.628Z,15.27
2018-10-11T00:10:21.504Z,14.67
2018-10-11T00:12:58.758Z,14.73
2018-10-11T00:15:34.676Z,15.37
2018-10-11T00:18:03.597Z,14.83
2018-10-11T00:20:32.515Z,15.10
2018-10-11T00:23:02.526Z,15.60
2018-10-11T00:28:32.355Z,14.67
2018-10-11T00:31:01.274Z,16.33
2018-10-11T00:33:30.195Z,16.37
2018-10-11T00:36:03.234Z,16.03
2018-10-11T00:38:32.134Z,15.47
2018-10-11T00:41:04.729Z,15.77
2018-10-11T00:43:34.764Z,15.60
2018-10-11T00:46:09.092Z,15.07
2018-10-11T00:48:38.192Z,15.07
2018-10-11T00:51:08.129Z,15.13
2018-10-11T00:53:59.701Z,16.60
2018-10-11T00:56:28.584Z,15.83
2018-10-11T00:58:57.492Z,14.97
2018-10-11T01:01:34.015Z,15.73
2018-10-11T01:04:02.929Z,14.43
2018-10-11T01:06:31.843Z,14.83
2018-10-11T01:09:01.774Z,15.03
2018-10-11T01:11:30.710Z,14.43
2018-10-11T01:14:01.732Z,14.43
2018-10-11T01:16:30.758Z,14.60
2018-10-11T01:18:59.658Z,14.70
2018-10-11T01:21:28.551Z,14.27
2018-10-11T01:23:57.475Z,15.43
2018-10-11T01:26:26.328Z,14.57
2018-10-11T01:28:55.249Z,14.03
2018-10-11T01:31:31.843Z,14.87
2018-10-11T01:34:00.753Z,14.93
2018-10-11T01:36:33.191Z,14.00
2018-10-11T01:39:02.110Z,14.10
2018-10-11T01:41:30.992Z,13.70
2018-10-11T01:44:00.151Z,14.43
2018-10-11T01:46:29.091Z,14.10
2018-10-11T01:48:58.215Z,14.57
2018-10-11T01:51:27.128Z,14.47
2018-10-11T01:53:56.026Z,13.80
2018-10-11T01:56:24.948Z,13.10
2018-10-11T01:58:53.905Z,14.27
2018-10-11T02:01:22.782Z,13.67
2018-10-11T02:03:53.071Z,13.10
2018-10-11T02:06:21.989Z,13.27
2018-10-11T02:08:50.877Z,13.47
2018-10-11T02:11:19.762Z,13.80
2018-10-11T02:13:48.657Z,13.03
2018-10-11T02:16:18.675Z,13.40
2018-10-11T02:18:47.572Z,13.97
2018-10-11T02:21:35.338Z,14.00
2018-10-11T02:24:04.258Z,13.17
2018-10-11T02:26:33.155Z,13.67
2018-10-11T02:29:06.364Z,13.90
2018-10-11T02:31:51.591Z,13.57
2018-10-11T02:34:20.469Z,13.03
2018-10-11T02:36:49.373Z,13.70
2018-10-11T02:39:40.902Z,12.53
2018-10-11T02:42:09.874Z,12.77
2018-10-11T02:44:38.789Z,13.50
2018-10-11T02:47:07.766Z,12.87
2018-10-11T02:49:36.695Z,14.00
2018-10-11T02:52:05.627Z,14.57
2018-10-11T02:54:34.501Z,14.27
2018-10-11T02:57:04.546Z,14.37
2018-10-11T02:59:35.754Z,14.00
2018-10-11T03:02:13.312Z,13.20
2018-10-11T03:04:43.550Z,14.23
2018-10-11T03:07:13.149Z,14.37
2018-10-11T03:09:43.361Z,14.27
2018-10-11T03:12:13.817Z,14.27
2018-10-11T03:14:49.270Z,13.87
2018-10-11T03:17:18.895Z,14.93
2018-10-11T03:20:00.173Z,15.13
2018-10-11T03:22:29.618Z,14.43
2018-10-11T03:24:59.131Z,14.90
2018-10-11T03:27:28.683Z,13.80
2018-10-11T03:29:58.099Z,14.10
2018-10-11T03:35:25.241Z,13.63
2018-10-11T03:37:54.432Z,14.27
2018-10-11T03:40:28.775Z,15.00
2018-10-11T03:42:58.825Z,14.07
2018-10-11T03:45:38.113Z,15.43
2018-10-11T03:48:10.365Z,14.83
2018-10-11T03:50:41.311Z,14.83
2018-10-11T03:53:10.326Z,14.50
2018-10-11T03:55:39.493Z,15.00
2018-10-11T03:58:15.007Z,15.60
2018-10-11T04:00:47.391Z,15.97
2018-10-11T04:03:16.513Z,15.27
2018-10-11T04:05:46.479Z,14.33
2018-10-11T04:08:17.420Z,14.27
2018-10-11T04:10:46.285Z,15.37
2018-10-11T04:13:23.390Z,15.63
2018-10-11T04:15:56.646Z,14.57
2018-10-11T04:18:26.642Z,14.03
2018-10-11T04:21:00.643Z,15.53
2018-10-11T04:23:33.381Z,15.23
2018-10-11T04:26:02.281Z,15.17
2018-10-11T04:28:35.839Z,15.30
2018-10-11T04:31:15.090Z,15.60
2018-10-11T04:34:02.342Z,15.23
2018-10-11T04:36:35.889Z,15.60
2018-10-11T04:39:08.763Z,14.60
2018-10-11T04:41:44.937Z,15.73
2018-10-11T04:44:13.829Z,15.03
2018-10-11T04:46:49.410Z,14.63
2018-10-11T04:52:18.362Z,15.93
2018-10-11T04:54:47.313Z,15.20
2018-10-11T04:57:17.240Z,15.90
2018-10-11T04:59:58.535Z,14.80
2018-10-11T05:02:40.153Z,14.87
2018-10-11T05:05:10.264Z,14.60
2018-10-11T05:07:39.193Z,15.67
2018-10-11T05:10:10.465Z,14.63
2018-10-11T05:12:53.339Z,15.30
2018-10-11T05:15:25.030Z,15.63
2018-10-11T05:17:59.302Z,15.77
2018-10-11T05:20:33.926Z,16.27
2018-10-11T05:23:04.926Z,15.53
2018-10-11T05:25:34.942Z,15.63
2018-10-11T05:28:03.934Z,15.40
2018-10-11T05:30:34.061Z,15.53
2018-10-11T05:33:07.098Z,16.53
2018-10-11T05:35:59.627Z,15.83
2018-10-11T05:38:35.717Z,16.03
2018-10-11T05:41:10.435Z,15.97
2018-10-11T05:43:39.403Z,15.43
2018-10-11T05:46:20.505Z,16.50
2018-10-11T05:49:12.315Z,17.43
2018-10-11T05:51:41.593Z,15.73
2018-10-11T05:54:10.573Z,17.27
2018-10-11T05:56:41.802Z,17.10
2018-10-11T05:59:11.369Z,17.93
2018-10-11T06:01:41.286Z,18.03
2018-10-11T06:04:11.246Z,18.70
2018-10-11T06:06:40.426Z,18.23
2018-10-11T06:09:14.106Z,18.00
2018-10-11T06:11:43.617Z,18.10
2018-10-11T06:14:13.025Z,18.97
2018-10-11T06:16:41.962Z,17.93
2018-10-11T06:19:12.259Z,19.03
2018-10-11T06:21:41.170Z,18.77
2018-10-11T06:24:13.948Z,18.23
2018-10-11T06:26:42.849Z,18.80
2018-10-11T06:29:11.964Z,18.70
2018-10-11T06:31:51.922Z,18.20
2018-10-11T06:34:20.831Z,18.47
2018-10-11T06:36:49.751Z,18.90
2018-10-11T06:39:18.683Z,19.27
2018-10-11T06:41:47.648Z,19.03
2018-10-11T06:47:20.415Z,18.73
2018-10-11T06:52:49.247Z,18.87
2018-10-11T06:55:18.274Z,19.30
2018-10-11T06:57:47.236Z,19.03
2018-10-11T07:00:16.168Z,18.87
2018-10-11T07:02:45.075Z,19.60
2018-10-11T07:05:13.974Z,19.40
2018-10-11T07:07:42.941Z,18.77
2018-10-11T07:10:15.293Z,19.40
2018-10-11T07:12:44.418Z,19.13
2018-10-11T07:15:14.390Z,20.00
2018-10-11T07:17:43.382Z,20.17
2018-10-11T07:20:12.282Z,20.10
2018-10-11T07:22:41.221Z,19.50
2018-10-11T07:25:10.454Z,19.40
2018-10-11T07:27:39.511Z,20.93
2018-10-11T07:30:08.389Z,19.03
2018-10-11T07:32:47.370Z,20.67
2018-10-11T07:35:16.312Z,20.00
2018-10-11T07:37:45.244Z,19.57
2018-10-11T07:40:30.202Z,20.13
2018-10-11T07:42:59.289Z,20.63
2018-10-11T07:45:31.776Z,20.43
2018-10-11T07:48:00.723Z,19.40
2018-10-11T07:50:52.349Z,20.30
2018-10-11T07:53:21.277Z,19.97
2018-10-11T07:55:51.113Z,20.77
2018-10-11T07:58:22.141Z,20.40
2018-10-11T08:00:51.041Z,20.03
2018-10-11T08:03:20.068Z,19.00
2018-10-11T08:05:48.951Z,20.77
2018-10-11T08:08:18.030Z,18.33
2018-10-11T08:10:46.988Z,19.53
2018-10-11T08:13:25.786Z,19.53
2018-10-11T08:16:07.993Z,19.97
2018-10-11T08:19:01.641Z,19.43
2018-10-11T08:21:47.112Z,19.63
2018-10-11T08:24:19.937Z,19.03
2018-10-11T08:29:55.097Z,19.27
2018-10-11T08:32:24.056Z,19.03
2018-10-11T08:34:52.981Z,19.30
2018-10-11T08:37:26.762Z,19.50
2018-10-11T08:40:13.672Z,19.00
2018-10-11T08:42:42.659Z,19.43
2018-10-11T08:45:11.583Z,18.20
2018-10-11T08:47:40.473Z,18.33
2018-10-11T08:50:09.375Z,18.40
2018-10-11T08:52:38.293Z,18.33
2018-10-11T08:55:07.239Z,18.63
2018-10-11T08:57:36.142Z,17.60
2018-10-11T09:00:22.329Z,16.93
2018-10-11T09:02:55.237Z,17.27
2018-10-11T09:05:33.661Z,17.57
2018-10-11T09:08:07.431Z,17.10
2018-10-11T09:10:38.449Z,17.40
2018-10-11T09:18:58.557Z,16.77
2018-10-11T09:21:39.450Z,16.77
2018-10-11T09:24:08.413Z,16.80
2018-10-11T09:26:39.798Z,17.10
2018-10-11T09:29:11.290Z,16.10
2018-10-11T09:31:48.798Z,16.17
2018-10-11T09:34:36.856Z,16.90
2018-10-11T09:37:13.208Z,16.00
2018-10-11T09:39:42.860Z,15.70
2018-10-11T09:42:16.616Z,15.73
2018-10-11T09:44:55.702Z,15.20
2018-10-11T09:47:25.220Z,14.70
2018-10-11T09:50:10.324Z,16.47
2018-10-11T09:52:44.399Z,15.77
2018-10-11T09:55:13.902Z,13.97
2018-10-11T09:57:51.276Z,14.60
2018-10-11T10:00:26.828Z,15.20
2018-10-11T10:03:02.026Z,14.40
2018-10-11T10:05:33.414Z,14.40
2018-10-11T10:08:04.073Z,12.80
2018-10-11T10:10:38.882Z,11.60
2018-10-11T10:13:16.130Z,12.87
2018-10-11T10:15:51.164Z,11.90
2018-10-11T10:18:33.706Z,11.83
2018-10-11T10:21:08.808Z,12.80
2018-10-11T10:23:47.684Z,13.10
2018-10-11T10:26:19.164Z,11.83
2018-10-11T10:28:55.229Z,11.57
2018-10-11T10:31:34.281Z,11.20
2018-10-11T10:34:15.261Z,11.23
2018-10-11T10:36:46.282Z,11.63
2018-10-11T10:39:15.270Z,11.27
2018-10-11T10:41:54.052Z,10.67
2018-10-11T10:44:24.008Z,9.50
2018-10-11T10:47:03.687Z,9.30
2018-10-11T10:49:32.759Z,9.70
2018-10-11T10:52:18.871Z,9.23
2018-10-11T10:54:52.658Z,7.60
2018-10-11T10:57:29.358Z,7.70
2018-10-11T10:59:59.086Z,8.07
2018-10-11T11:02:32.537Z,7.03
2018-10-11T11:05:03.237Z,7.23
2018-10-11T11:07:48.318Z,6.93
2018-10-11T11:10:37.846Z,7.03
2018-10-11T11:13:25.609Z,7.00
2018-10-11T11:15:55.295Z,6.87
2018-10-11T11:18:25.819Z,6.63
2018-10-11T11:21:00.587Z,6.30
2018-10-11T11:23:31.037Z,6.40
2018-10-11T11:26:05.696Z,6.90
2018-10-11T11:28:45.506Z,6.50
2018-10-11T11:31:28.909Z,6.23
2018-10-11T11:34:11.313Z,6.23
2018-10-11T11:36:58.462Z,5.80
2018-10-11T11:39:31.138Z,6.50
2018-10-11T11:42:02.069Z,5.53
2018-10-11T11:44:31.390Z,5.60
2018-10-11T11:47:00.304Z,5.50
2018-10-11T11:49:37.344Z,6.00
2018-10-11T11:52:14.151Z,5.67
2018-10-11T11:55:07.821Z,5.63
2018-10-11T11:57:37.811Z,5.67
2018-10-11T12:00:18.171Z,5.43
2018-10-11T12:02:54.322Z,5.70
2018-10-11T12:05:27.155Z,5.80
2018-10-11T12:08:00.035Z,5.63
2018-10-11T12:10:36.279Z,6.13
2018-10-11T12:13:12.074Z,5.27
2018-10-11T12:15:42.337Z,6.03
2018-10-11T12:18:11.619Z,6.57
2018-10-11T12:20:43.113Z,6.60
2018-10-11T12:23:12.885Z,6.50
2018-10-11T12:25:43.867Z,6.40
2018-10-11T12:28:14.804Z,6.07
2018-10-11T12:31:07.890Z,6.13
2018-10-11T12:33:36.795Z,6.63
2018-10-11T12:36:13.746Z,6.73
2018-10-11T12:38:46.372Z,6.37
2018-10-11T12:41:18.388Z,6.47
2018-10-11T12:43:50.958Z,6.13
2018-10-11T12:46:24.797Z,6.00
2018-10-11T12:49:14.428Z,6.40
2018-10-11T12:51:56.945Z,5.80
2018-10-11T12:54:36.159Z,5.80
2018-10-11T12:57:22.920Z,5.60
2018-10-11T12:59:56.989Z,5.53
2018-10-11T13:02:39.024Z,6.20
2018-10-11T13:05:08.964Z,5.73
2018-10-11T13:07:42.284Z,6.07
2018-10-11T13:10:23.645Z,5.70
2018-10-11T13:13:01.476Z,6.63
2018-10-11T13:15:29.963Z,6.23
2018-10-11T13:18:17.030Z,6.53
2018-10-11T13:21:00.400Z,5.90
2018-10-11T13:23:33.214Z,5.67
2018-10-11T13:26:21.798Z,5.90
2018-10-11T13:28:58.418Z,5.53
2018-10-11T13:31:34.719Z,6.10
2018-10-11T13:34:08.402Z,5.90
2018-10-11T13:36:39.700Z,7.27
2018-10-11T13:39:13.149Z,6.60
2018-10-11T13:41:50.589Z,6.13
2018-10-11T13:44:31.265Z,6.03
2018-10-11T13:47:18.419Z,5.87
2018-10-11T13:49:54.412Z,6.40
2018-10-11T13:55:16.660Z,6.47
2018-10-11T13:57:45.652Z,6.17
2018-10-11T14:00:14.584Z,6.60
2018-10-11T14:02:49.613Z,6.70
2018-10-11T14:05:18.581Z,7.07
2018-10-11T14:07:48.608Z,7.10
2018-10-11T14:10:22.376Z,6.33
2018-10-11T14:12:53.285Z,6.20
2018-10-11T14:15:26.068Z,8.00
2018-10-11T14:18:06.214Z,7.03
2018-10-11T14:20:32.967Z,7.30
2018-10-11T14:23:07.229Z,6.80
2018-10-11T14:25:50.477Z,6.37
2018-10-11T14:28:20.565Z,7.27
2018-10-11T14:30:55.573Z,7.40
2018-10-11T14:33:25.545Z,7.40
2018-10-11T14:35:57.907Z,7.67
2018-10-11T14:38:26.818Z,7.17
2018-10-11T14:40:55.778Z,6.77
2018-10-11T14:43:24.757Z,6.93
2018-10-11T14:45:55.674Z,6.50
2018-10-11T14:48:24.661Z,6.60
2018-10-11T14:51:11.293Z,6.70
2018-10-11T14:56:42.151Z,6.47
2018-10-11T14:59:13.568Z,6.67
2018-10-11T15:01:49.678Z,6.73
2018-10-11T15:04:25.557Z,6.90
2018-10-11T15:06:58.596Z,6.67
2018-10-11T15:09:30.313Z,6.77
2018-10-11T15:12:13.821Z,7.17
2018-10-11T15:14:48.425Z,6.50
2018-10-11T15:17:25.700Z,6.77
2018-10-11T15:19:58.233Z,5.90
2018-10-11T15:22:31.768Z,6.90
2018-10-11T15:25:13.523Z,6.53
2018-10-11T15:27:43.627Z,6.67
2018-10-11T15:33:06.022Z,6.73
2018-10-11T15:35:43.013Z,6.60
2018-10-11T15:38:18.739Z,6.53
2018-10-11T15:40:51.073Z,6.83
2018-10-11T15:43:20.005Z,6.23
2018-10-11T15:45:54.684Z,6.47
2018-10-11T15:48:23.614Z,7.30
2018-10-11T15:51:11.463Z,6.83
2018-10-11T15:53:46.402Z,6.03
2018-10-11T15:59:16.644Z,6.80
2018-10-11T16:01:46.593Z,6.83
2018-10-11T16:04:20.689Z,6.60
2018-10-11T16:07:09.732Z,6.67
2018-10-11T16:09:47.136Z,6.10
2018-10-11T16:12:17.111Z,6.77
2018-10-11T16:14:46.027Z,6.53
2018-10-11T16:17:16.002Z,6.40
2018-10-11T16:19:51.133Z,6.23
2018-10-11T16:22:21.357Z,6.20
2018-10-11T16:24:58.340Z,6.40
2018-10-11T16:27:31.693Z,6.50
2018-10-11T16:30:01.644Z,6.80
2018-10-11T16:32:31.642Z,6.37
2018-10-11T16:35:06.185Z,6.33
2018-10-11T16:37:42.643Z,6.70
2018-10-11T16:40:15.871Z,6.80
2018-10-11T16:42:49.641Z,6.70
2018-10-11T16:45:35.586Z,6.83
2018-10-11T16:51:01.700Z,7.13
2018-10-11T16:53:45.569Z,7.50
2018-10-11T16:56:15.524Z,6.77
2018-10-11T16:58:45.601Z,6.70
2018-10-11T17:01:15.585Z,6.93
2018-10-11T17:03:44.557Z,7.60
2018-10-11T17:06:15.472Z,7.07
2018-10-11T17:08:44.468Z,7.60
2018-10-11T17:11:15.425Z,7.33
2018-10-11T17:13:54.958Z,7.83
2018-10-11T17:16:37.221Z,7.77
2018-10-11T17:19:07.205Z,7.73
2018-10-11T17:21:43.922Z,8.23
2018-10-11T17:24:12.888Z,7.80
2018-10-11T17:27:00.361Z,8.43
2018-10-11T17:29:36.866Z,8.37
2018-10-11T17:32:07.761Z,7.80
2018-10-11T17:34:37.172Z,8.23
2018-10-11T17:37:08.278Z,7.77
2018-10-11T17:39:37.307Z,8.83
2018-10-11T17:42:07.323Z,8.90
2018-10-11T17:44:42.120Z,8.57
2018-10-11T17:47:13.046Z,7.93
2018-10-11T17:49:42.145Z,8.43
2018-10-11T17:52:23.344Z,8.00
2018-10-11T17:55:08.754Z,8.00
2018-10-11T17:57:44.048Z,8.10
2018-10-11T18:00:13.067Z,8.30
2018-10-11T18:02:41.991Z,8.10
2018-10-11T18:05:11.001Z,8.40
2018-10-11T18:07:50.325Z,8.27
2018-10-11T18:13:25.076Z,8.27
2018-10-11T18:16:03.401Z,9.23
2018-10-11T18:18:34.355Z,9.70
2018-10-11T18:21:03.331Z,8.80
2018-10-11T18:23:44.548Z,8.37
2018-10-11T18:26:17.189Z,9.07
2018-10-11T18:28:46.240Z,8.67
2018-10-11T18:31:21.991Z,8.87
2018-10-11T18:33:52.756Z,9.10
2018-10-11T18:36:26.422Z,8.80
2018-10-11T18:38:56.152Z,8.70
2018-10-11T18:41:30.580Z,8.80
2018-10-11T18:44:03.865Z,9.23
2018-10-11T18:46:34.334Z,9.20
2018-10-11T18:49:09.678Z,8.60
2018-10-11T18:51:38.649Z,9.60
2018-10-11T18:54:07.804Z,9.50
2018-10-11T18:56:36.759Z,9.37
2018-10-11T18:59:06.817Z,9.13
2018-10-11T19:01:39.843Z,9.43
2018-10-11T19:04:15.294Z,9.27
2018-10-11T19:06:46.231Z,9.87
2018-10-11T19:09:15.249Z,9.43
2018-10-11T19:11:47.567Z,9.50
2018-10-11T19:14:17.484Z,10.10
2018-10-11T19:16:46.513Z,10.17
2018-10-11T19:19:18.957Z,11.03
2018-10-11T19:22:01.815Z,11.10
2018-10-11T19:24:32.879Z,10.93
2018-10-11T19:27:04.010Z,10.60
2018-10-11T19:29:36.671Z,11.23
2018-10-11T19:35:06.862Z,13.13
2018-10-11T19:37:53.755Z,12.43
2018-10-11T19:40:26.602Z,11.50
2018-10-11T19:42:59.798Z,12.40
2018-10-11T19:45:29.489Z,11.93
2018-10-11T19:48:03.601Z,12.60
2018-10-11T19:50:37.284Z,12.50
2018-10-11T19:53:07.282Z,13.73
2018-10-11T19:55:41.973Z,12.33
2018-10-11T19:58:12.128Z,12.87
2018-10-11T20:00:54.093Z,12.90
2018-10-11T20:03:27.979Z,13.13
2018-10-11T20:06:00.106Z,13.33
2018-10-11T20:08:52.036Z,15.07
2018-10-11T20:11:22.397Z,13.67
2018-10-11T20:14:03.461Z,14.20
2018-10-11T20:16:38.035Z,14.27
2018-10-11T20:19:24.599Z,14.10
2018-10-11T20:21:59.051Z,14.63
2018-10-11T20:24:28.220Z,15.00
2018-10-11T20:26:58.159Z,16.43
2018-10-11T20:29:30.406Z,14.63
2018-10-11T20:32:00.360Z,14.40
2018-10-11T20:34:31.441Z,13.93
2018-10-11T20:37:00.532Z,14.27
2018-10-11T20:39:35.095Z,14.20
2018-10-11T20:42:05.998Z,14.20
2018-10-11T20:44:35.927Z,14.37
2018-10-11T20:47:05.589Z,14.53
2018-10-11T20:49:37.034Z,14.60
2018-10-11T20:52:06.113Z,14.90
2018-10-11T20:54:36.123Z,14.97
2018-10-11T20:57:06.264Z,14.40
2018-10-11T20:59:35.323Z,14.00
2018-10-11T21:02:17.508Z,13.83
2018-10-11T21:04:58.880Z,14.23
2018-10-11T21:07:34.654Z,14.00
2018-10-11T21:10:09.728Z,13.80
2018-10-11T21:12:50.745Z,13.93
2018-10-11T21:15:19.653Z,13.37
2018-10-11T21:17:53.398Z,13.47
2018-10-11T21:20:22.552Z,13.90
2018-10-11T21:22:57.705Z,14.57
2018-10-11T21:25:32.673Z,14.33
2018-10-11T21:28:07.070Z,14.37
2018-10-11T21:30:40.822Z,13.57
2018-10-11T21:33:09.829Z,13.73
2018-10-11T21:35:44.714Z,14.07
2018-10-11T21:38:17.781Z,13.77
2018-10-11T21:43:42.054Z,13.03
2018-10-11T21:46:13.103Z,13.77
2018-10-11T21:48:52.565Z,13.20
2018-10-11T21:51:40.941Z,13.97
2018-10-11T21:54:11.095Z,13.03
2018-10-11T21:56:40.249Z,13.40
2018-10-11T21:59:22.206Z,14.03
2018-10-11T22:02:03.758Z,12.53
2018-10-11T22:04:37.221Z,13.70
2018-10-11T22:07:10.488Z,13.73
2018-10-11T22:09:49.393Z,13.50
2018-10-11T22:12:25.864Z,13.50
2018-10-11T22:15:07.271Z,13.70
2018-10-11T22:17:36.249Z,13.80
2018-10-11T22:20:10.714Z,13.83
2018-10-11T22:22:39.732Z,13.27
2018-10-11T22:25:08.931Z,12.67
2018-10-11T22:27:43.717Z,12.97
2018-10-11T22:30:12.713Z,13.20
2018-10-11T22:32:41.708Z,13.53
2018-10-11T22:35:10.672Z,12.97
2018-10-11T22:37:41.707Z,12.30
2018-10-11T22:40:17.097Z,12.17
2018-10-11T22:42:47.114Z,12.67
2018-10-11T22:45:17.135Z,12.47
2018-10-11T22:47:46.165Z,13.23
2018-10-11T22:50:15.237Z,12.27
2018-10-11T22:52:50.187Z,12.13
2018-10-11T22:58:14.708Z,12.40
2018-10-11T23:00:43.790Z,13.10
2018-10-11T23:03:18.358Z,12.57
2018-10-11T23:05:47.302Z,11.80
2018-10-11T23:08:16.292Z,12.37
2018-10-11T23:10:45.279Z,12.40
2018-10-11T23:13:14.185Z,12.53
2018-10-11T23:15:43.431Z,12.87
2018-10-11T23:18:14.342Z,12.50
2018-10-11T23:20:43.388Z,12.07
2018-10-11T23:23:24.810Z,12.17
2018-10-11T23:25:53.729Z,11.77
2018-10-11T23:28:22.699Z,12.00
2018-10-11T23:30:51.832Z,13.50
2018-10-11T23:33:20.809Z,12.10
2018-10-11T23:35:49.711Z,11.80
2018-10-11T23:38:18.619Z,11.87
2018-10-11T23:40:51.584Z,11.83
2018-10-11T23:43:20.562Z,12.50
2018-10-11T23:46:07.997Z,12.50
2018-10-11T23:48:37.370Z,13.00
2018-10-11T23:51:06.869Z,12.83
2018-10-11T23:53:35.754Z,12.17
2018-10-11T23:56:04.747Z,12.07
2018-10-11T23:58:33.635Z,12.43
